createdAt,value
2018-07-13T06:14:44.901Z,9.73
2018-07-13T06:56:27.175Z,10.00
2018-07-13T06:59:10.789Z,11.20
2018-07-13T07:01:40.768Z,11.40
2018-07-13T07:04:41.828Z,9.90
2018-07-13T07:07:20.941Z,9.40
2018-07-13T07:09:57.850Z,8.87
2018-07-13T07:12:52.705Z,9.53
2018-07-13T07:15:23.924Z,9.50
2018-07-13T07:17:54.735Z,9.53
2018-07-13T07:20:24.605Z,10.00
2018-07-13T07:22:54.900Z,12.67
2018-07-13T07:25:24.902Z,14.10
2018-07-13T07:27:54.858Z,16.33
2018-07-13T07:30:24.772Z,13.13
2018-07-13T07:32:54.880Z,12.13
2018-07-13T07:35:25.113Z,9.97
2018-07-13T07:37:54.901Z,8.23
2018-07-13T07:40:24.726Z,8.23
2018-07-13T07:42:54.424Z,13.77
2018-07-13T07:45:24.597Z,10.87
2018-07-13T07:47:54.795Z,11.97
2018-07-13T07:50:24.793Z,12.87
2018-07-13T07:52:54.917Z,11.17
2018-07-13T07:55:24.913Z,11.57
2018-07-13T07:57:54.432Z,9.73
2018-07-13T08:00:24.239Z,10.23
2018-07-13T08:02:54.052Z,9.97
2018-07-13T08:05:24.532Z,9.73
2018-07-13T08:07:54.653Z,8.53
2018-07-13T08:10:24.513Z,8.97
2018-07-13T08:12:54.537Z,9.83
2018-07-13T08:15:24.355Z,9.23
2018-07-13T08:17:54.279Z,9.27
2018-07-13T08:20:27.211Z,9.97
2018-07-13T08:22:59.053Z,7.60
2018-07-13T08:25:29.267Z,8.03
2018-07-13T08:28:03.024Z,8.30
2018-07-13T08:30:36.110Z,8.07
2018-07-13T08:33:06.001Z,8.73
2018-07-13T08:35:35.978Z,8.53
2018-07-13T08:38:06.809Z,7.93
2018-07-13T08:40:36.962Z,9.63
2018-07-13T08:43:07.100Z,9.13
2018-07-13T08:45:37.053Z,10.17
2018-07-13T08:48:07.292Z,11.00
2018-07-13T08:50:37.952Z,8.70
2018-07-13T08:53:08.184Z,10.23
2018-07-13T08:55:38.424Z,11.10
2018-07-13T08:58:08.528Z,10.43
2018-07-13T09:00:38.629Z,9.80
2018-07-13T09:03:08.522Z,9.53
2018-07-13T09:05:38.523Z,10.13
2018-07-13T09:08:08.419Z,9.20
2018-07-13T09:10:38.346Z,8.27
2018-07-13T09:13:08.296Z,8.60
2018-07-13T09:15:38.098Z,8.13
2018-07-13T09:18:08.252Z,8.10
2018-07-13T09:20:38.436Z,7.93
2018-07-13T09:23:07.995Z,7.70
2018-07-13T09:25:37.862Z,8.47
2018-07-13T09:28:07.969Z,8.07
2018-07-13T09:30:37.925Z,8.13
2018-07-13T09:33:08.297Z,8.27
2018-07-13T09:35:38.451Z,8.50
2018-07-13T09:38:08.577Z,7.93
2018-07-13T09:40:38.554Z,8.60
2018-07-13T09:43:08.560Z,7.57
2018-07-13T09:45:38.592Z,9.20
2018-07-13T09:48:08.448Z,9.10
2018-07-13T09:50:38.319Z,9.10
2018-07-13T09:53:08.274Z,9.37
2018-07-13T09:55:38.155Z,9.07
2018-07-13T09:59:04.025Z,8.27
2018-07-13T10:01:33.965Z,7.93
2018-07-13T10:04:18.218Z,7.37
2018-07-13T10:06:50.354Z,6.63
2018-07-13T10:09:20.521Z,7.33
2018-07-13T10:11:51.629Z,8.57
2018-07-13T10:14:21.092Z,7.23
2018-07-13T10:16:51.147Z,8.70
2018-07-13T10:19:20.949Z,9.23
2018-07-13T10:21:51.335Z,8.03
2018-07-13T10:24:22.786Z,8.00
2018-07-13T10:26:55.066Z,7.43
2018-07-13T10:29:31.705Z,7.83
2018-07-13T10:32:03.065Z,8.43
2018-07-13T10:34:33.886Z,7.87
2018-07-13T10:37:05.165Z,7.87
2018-07-13T10:39:35.128Z,8.83
2018-07-13T10:42:04.956Z,8.17
2018-07-13T10:44:34.878Z,7.10
2018-07-13T10:47:04.867Z,6.50
2018-07-13T10:49:34.786Z,4.90
2018-07-13T10:52:04.555Z,4.83
2018-07-13T10:54:34.373Z,4.37
2018-07-13T10:57:04.240Z,3.80
2018-07-13T10:59:34.034Z,4.37
2018-07-13T11:02:03.835Z,3.57
2018-07-13T11:04:33.706Z,3.67
2018-07-13T11:07:03.550Z,4.33
2018-07-13T11:09:33.330Z,4.73
2018-07-13T11:12:03.083Z,6.03
2018-07-13T11:14:32.861Z,5.07
2018-07-13T11:17:02.707Z,5.13
2018-07-13T11:19:32.429Z,5.07
2018-07-13T11:22:02.191Z,4.60
2018-07-13T11:24:31.962Z,4.27
2018-07-13T11:27:01.846Z,4.77
2018-07-13T11:29:31.563Z,4.70
2018-07-13T11:32:01.291Z,4.63
2018-07-13T11:34:31.291Z,4.43
2018-07-13T11:37:01.240Z,4.03
2018-07-13T11:39:30.942Z,4.07
2018-07-13T11:42:00.740Z,3.97
2018-07-13T11:44:30.661Z,4.13
2018-07-13T11:47:01.021Z,4.50
2018-07-13T11:49:30.722Z,5.20
2018-07-13T11:52:00.494Z,5.57
2018-07-13T11:54:30.194Z,3.80
2018-07-13T11:56:59.993Z,3.67
2018-07-13T11:59:29.814Z,6.13
2018-07-13T12:01:59.611Z,4.27
2018-07-13T12:04:29.400Z,4.67
2018-07-13T12:06:59.189Z,5.43
2018-07-13T12:09:28.985Z,4.70
2018-07-13T12:11:58.819Z,4.17
2018-07-13T12:14:28.892Z,4.40
2018-07-13T12:16:58.576Z,5.10
2018-07-13T12:19:28.501Z,4.57
2018-07-13T12:21:58.242Z,4.77
2018-07-13T12:24:28.127Z,4.50
2018-07-13T12:26:57.948Z,4.63
2018-07-13T12:29:27.741Z,3.77
2018-07-13T12:31:57.567Z,4.23
2018-07-13T12:34:27.530Z,3.90
2018-07-13T12:36:57.445Z,3.80
2018-07-13T12:39:27.355Z,4.00
2018-07-13T12:41:57.044Z,3.90
2018-07-13T12:44:26.385Z,3.40
2018-07-13T12:46:56.179Z,3.73
2018-07-13T12:49:25.965Z,5.03
2018-07-13T12:51:55.713Z,4.50
2018-07-13T12:54:25.628Z,4.73
2018-07-13T12:56:55.379Z,4.73
2018-07-13T12:59:25.196Z,4.37
2018-07-13T13:01:55.167Z,4.53
2018-07-13T13:04:24.903Z,3.43
2018-07-13T13:06:54.690Z,3.63
2018-07-13T13:09:24.511Z,4.70
2018-07-13T13:11:54.457Z,4.17
2018-07-13T13:14:24.473Z,4.10
2018-07-13T13:16:54.356Z,4.40
2018-07-13T13:19:24.230Z,4.00
2018-07-13T13:21:54.397Z,4.50
2018-07-13T13:24:23.997Z,4.50
2018-07-13T13:26:53.844Z,4.20
2018-07-13T13:29:23.709Z,3.50
2018-07-13T13:31:53.466Z,3.67
2018-07-13T13:34:23.330Z,3.47
2018-07-13T13:36:53.314Z,3.40
2018-07-13T13:39:23.271Z,3.37
2018-07-13T13:41:53.026Z,4.13
2018-07-13T13:44:22.421Z,4.67
2018-07-13T13:46:51.805Z,4.30
2018-07-13T13:49:21.603Z,3.30
2018-07-13T13:51:51.481Z,3.50
2018-07-13T13:54:21.246Z,3.40
2018-07-13T13:56:51.149Z,3.63
2018-07-13T13:59:20.626Z,3.80
2018-07-13T14:01:50.388Z,3.27
2018-07-13T14:04:20.158Z,4.70
2018-07-13T14:06:49.913Z,4.40
2018-07-13T14:09:19.820Z,4.67
2018-07-13T14:11:49.520Z,5.43
2018-07-13T14:14:19.244Z,5.23
2018-07-13T14:16:49.180Z,6.23
2018-07-13T14:19:18.960Z,5.60
2018-07-13T14:21:48.950Z,5.87
2018-07-13T14:24:18.922Z,5.90
2018-07-13T14:26:48.857Z,4.93
2018-07-13T14:29:18.650Z,4.37
2018-07-13T14:31:48.607Z,5.03
2018-07-13T14:34:18.405Z,5.53
2018-07-13T14:36:50.300Z,4.17
2018-07-13T14:39:20.040Z,4.07
2018-07-13T14:41:50.286Z,4.20
2018-07-13T14:44:20.146Z,3.47
2018-07-13T14:46:49.992Z,3.30
2018-07-13T14:49:19.884Z,3.37
2018-07-13T14:51:49.827Z,4.00
2018-07-13T14:54:19.698Z,4.70
2018-07-13T14:56:49.488Z,3.80
2018-07-13T14:59:19.324Z,4.43
2018-07-13T15:01:49.663Z,4.77
2018-07-13T15:04:19.569Z,5.20
2018-07-13T15:06:49.707Z,5.50
2018-07-13T15:09:19.101Z,5.30
2018-07-13T15:11:48.646Z,4.60
2018-07-13T15:14:18.451Z,5.13
2018-07-13T15:16:47.866Z,4.63
2018-07-13T15:19:17.661Z,4.95
2018-07-13T15:21:47.627Z,4.97
2018-07-13T15:24:17.295Z,4.95
2018-07-13T15:26:47.240Z,4.73
2018-07-13T15:29:18.911Z,5.13
2018-07-13T15:31:48.749Z,4.47
2018-07-13T15:34:18.372Z,4.70
2018-07-13T15:36:48.141Z,4.47
2018-07-13T15:39:18.024Z,4.07
2018-07-13T15:41:47.901Z,3.97
2018-07-13T15:44:17.738Z,4.07
2018-07-13T15:46:47.656Z,4.13
2018-07-13T15:49:17.367Z,4.47
2018-07-13T15:51:47.123Z,5.00
2018-07-13T15:54:17.263Z,5.00
2018-07-13T15:56:46.970Z,5.00
2018-07-13T15:59:16.827Z,4.60
2018-07-13T16:01:46.646Z,4.30
2018-07-13T16:04:19.277Z,4.83
2018-07-13T16:06:49.695Z,4.47
2018-07-13T16:09:19.818Z,4.00
2018-07-13T16:11:49.753Z,4.47
2018-07-13T16:14:19.718Z,4.07
2018-07-13T16:16:49.658Z,3.87
2018-07-13T16:19:19.454Z,3.70
2018-07-13T16:21:49.250Z,4.10
2018-07-13T16:24:19.020Z,4.90
2018-07-13T16:26:48.875Z,4.13
2018-07-13T16:29:18.361Z,4.40
2018-07-13T16:31:48.261Z,4.80
2018-07-13T16:34:18.066Z,3.60
2018-07-13T16:36:47.911Z,3.70
2018-07-13T16:39:18.062Z,3.80
2018-07-13T16:41:47.830Z,3.60
2018-07-13T16:44:17.658Z,3.80
2018-07-13T16:46:47.394Z,3.93
2018-07-13T16:49:17.282Z,4.57
2018-07-13T16:51:47.027Z,4.33
2018-07-13T16:54:16.997Z,5.20
2018-07-13T16:56:47.408Z,4.60
2018-07-13T16:59:17.250Z,4.07
2018-07-13T17:01:46.994Z,4.70
2018-07-13T17:04:16.689Z,4.40
2018-07-13T17:06:46.916Z,3.90
2018-07-13T17:09:16.940Z,4.50
2018-07-13T17:11:46.663Z,4.83
2018-07-13T17:14:16.508Z,4.70
2018-07-13T17:16:46.234Z,4.20
2018-07-13T17:19:16.236Z,4.10
2018-07-13T17:21:45.985Z,4.13
2018-07-13T17:24:15.842Z,4.47
2018-07-13T17:26:45.262Z,4.00
2018-07-13T17:29:14.647Z,4.37
2018-07-13T17:31:44.398Z,4.27
2018-07-13T17:34:13.805Z,4.10
2018-07-13T17:36:43.183Z,4.33
2018-07-13T17:39:13.094Z,3.63
2018-07-13T17:41:43.017Z,3.90
2018-07-13T17:44:12.858Z,3.93
2018-07-13T17:46:42.312Z,3.70
2018-07-13T17:49:11.834Z,3.73
2018-07-13T17:51:41.476Z,3.77
2018-07-13T17:54:11.304Z,3.10
2018-07-13T17:56:41.166Z,3.93
2018-07-13T18:01:51.351Z,3.50
2018-07-13T18:04:21.054Z,4.00
2018-07-13T18:06:51.011Z,3.97
2018-07-13T18:09:20.757Z,3.67
2018-07-13T18:11:50.553Z,4.10
2018-07-13T18:14:20.406Z,3.87
2018-07-13T18:16:49.812Z,3.70
2018-07-13T18:19:19.813Z,3.60
2018-07-13T18:21:49.695Z,4.07
2018-07-13T18:24:19.443Z,3.53
2018-07-13T18:26:50.261Z,3.43
2018-07-13T18:29:20.202Z,3.43
2018-07-13T18:31:50.121Z,3.80
2018-07-13T18:34:19.876Z,3.90
2018-07-13T18:36:49.857Z,3.83
2018-07-13T18:39:19.645Z,3.77
2018-07-13T18:41:49.426Z,3.40
2018-07-13T18:44:19.275Z,3.80
2018-07-13T18:46:48.599Z,3.60
2018-07-13T18:49:18.418Z,3.73
2018-07-13T18:51:48.262Z,3.67
2018-07-13T18:54:18.042Z,4.17
2018-07-13T18:56:47.812Z,3.93
2018-07-13T18:59:17.843Z,4.27
2018-07-13T19:01:49.215Z,3.67
2018-07-13T19:04:19.079Z,4.10
2018-07-13T19:06:48.950Z,4.53
2018-07-13T19:09:18.677Z,4.70
2018-07-13T19:11:48.261Z,5.03
2018-07-13T19:14:18.121Z,4.03
2018-07-13T19:16:48.068Z,3.97
2018-07-13T19:19:19.081Z,3.70
2018-07-13T19:21:48.900Z,4.10
2018-07-13T19:24:18.840Z,3.60
2018-07-13T19:26:48.639Z,3.93
2018-07-13T19:29:18.534Z,3.40
2018-07-13T19:31:48.505Z,3.90
2018-07-13T19:34:18.373Z,3.43
2018-07-13T19:36:48.307Z,3.80
2018-07-13T19:39:18.212Z,3.87
2018-07-13T19:41:47.831Z,3.63
2018-07-13T19:44:17.225Z,3.87
2018-07-13T19:46:47.035Z,3.60
2018-07-13T19:49:16.868Z,3.47
2018-07-13T19:51:46.800Z,3.47
2018-07-13T19:54:16.627Z,3.80
2018-07-13T19:56:46.478Z,3.97
2018-07-13T19:59:16.299Z,3.67
2018-07-13T20:01:46.293Z,3.50
2018-07-13T20:04:16.110Z,3.80
2018-07-13T20:06:45.896Z,3.80
2018-07-13T20:09:15.710Z,4.00
2018-07-13T20:11:45.485Z,3.73
2018-07-13T20:14:15.552Z,3.67
2018-07-13T20:16:45.422Z,3.87
2018-07-13T20:19:15.885Z,3.90
2018-07-13T20:21:45.658Z,4.23
2018-07-13T20:24:15.616Z,3.67
2018-07-13T20:26:45.628Z,4.13
2018-07-13T20:29:15.561Z,3.60
2018-07-13T20:31:45.441Z,3.50
2018-07-13T20:34:15.266Z,3.43
2018-07-13T20:36:44.723Z,3.50
2018-07-13T20:39:14.499Z,3.70
2018-07-13T20:41:44.294Z,4.23
2018-07-13T20:44:14.095Z,4.00
2018-07-13T20:46:43.884Z,4.20
2018-07-13T20:49:13.738Z,3.90
2018-07-13T20:51:43.583Z,17.60
2018-07-13T20:54:13.036Z,13.33
2018-07-13T20:56:42.447Z,5.53
2018-07-13T20:59:17.331Z,7.57
2018-07-13T21:01:47.159Z,7.70
2018-07-13T21:04:16.977Z,6.23
2018-07-13T21:06:46.835Z,5.60
2018-07-13T21:09:16.509Z,4.67
2018-07-13T21:11:46.306Z,4.70
2018-07-13T21:14:16.151Z,4.40
2018-07-13T21:16:46.044Z,3.93
2018-07-13T21:19:15.469Z,3.93
2018-07-13T21:21:45.348Z,4.33
2018-07-13T21:24:15.129Z,4.13
2018-07-13T21:26:45.127Z,4.00
2018-07-13T21:29:14.891Z,3.67
2018-07-13T21:31:44.826Z,3.70
2018-07-13T21:34:14.602Z,4.10
2018-07-13T21:36:44.417Z,3.80
2018-07-13T21:39:14.249Z,3.70
2018-07-13T21:41:44.726Z,3.70
2018-07-13T21:44:14.508Z,4.10
2018-07-13T21:46:44.467Z,4.20
2018-07-13T21:49:14.410Z,3.70
2018-07-13T21:51:44.362Z,4.40
2018-07-13T21:54:16.346Z,3.67
2018-07-13T21:56:46.270Z,4.10
2018-07-13T21:59:16.339Z,3.77
2018-07-13T22:01:46.615Z,4.13
2018-07-13T22:04:30.207Z,4.13
2018-07-13T22:06:59.972Z,3.90
2018-07-13T22:09:29.886Z,4.30
2018-07-13T22:11:59.662Z,4.27
2018-07-13T22:14:30.374Z,4.10
2018-07-13T22:17:00.122Z,4.53
2018-07-13T22:19:29.971Z,4.60
2018-07-13T22:21:59.421Z,4.30
2018-07-13T22:24:29.227Z,4.47
2018-07-13T22:26:59.015Z,4.87
2018-07-13T22:29:28.737Z,5.00
2018-07-13T22:31:58.515Z,5.07
2018-07-13T22:34:28.361Z,5.03
2018-07-13T22:36:58.140Z,4.60
2018-07-13T22:39:27.958Z,4.90
2018-07-13T22:41:57.787Z,5.27
2018-07-13T22:44:27.551Z,5.00
2018-07-13T22:46:57.351Z,5.00
2018-07-13T22:49:27.063Z,5.77
2018-07-13T22:51:56.962Z,5.00
2018-07-13T22:54:26.373Z,5.10
2018-07-13T22:56:56.264Z,5.73
2018-07-13T22:59:26.022Z,5.37
2018-07-13T23:01:55.613Z,5.73
2018-07-13T23:04:25.582Z,5.63
2018-07-13T23:06:55.148Z,5.60
2018-07-13T23:09:24.961Z,5.80
2018-07-13T23:11:54.740Z,5.50
2018-07-13T23:14:24.161Z,5.70
2018-07-13T23:16:53.633Z,6.00
2018-07-13T23:19:23.385Z,6.07
2018-07-13T23:21:52.966Z,5.63
2018-07-13T23:24:22.916Z,6.40
2018-07-13T23:26:52.684Z,6.10
2018-07-13T23:29:22.652Z,5.77
2018-07-13T23:31:52.505Z,5.97
2018-07-13T23:34:21.937Z,5.70
2018-07-13T23:36:51.773Z,5.80
2018-07-13T23:39:21.472Z,5.87
2018-07-13T23:41:50.791Z,6.13
2018-07-13T23:44:20.646Z,5.83
2018-07-13T23:46:50.694Z,5.67
2018-07-13T23:49:20.460Z,5.63
2018-07-13T23:51:50.142Z,5.57
2018-07-13T23:54:19.945Z,6.03
2018-07-13T23:56:49.803Z,5.50
2018-07-13T23:59:19.629Z,5.87
